Aeroporto :
LOGIN :

Iscrizione | Disclaimer

   EN    FR    IT 

 










Sommario :    VFR   VFR Marginale   IFR   IFR Intensivo   IFR Molto Intensivo
Visibilità : 
Base nubi : 
>= 8 km
>= 3000ft
5 / 8 km
1000 / 3000 ft
1500m / 5 km
500 / 1000 ft
800 / 1500m
200 / 500 ft
< 800m
< 200 ft
Simboli :   Temporali  Nebbia  Neve Forte  Precipitazioni Forti  Vento > 20 kt
SIGMETs :   Varie  Temporali  Ghiacco  Turbolenza  Onda orograficha  Ceneri Vulcaniche






- Altitudine del aeroporto : 404 ft
- Codice IATA : WRO


EPWR - Wroclaw

ULTIMO METAR :
  • 041730Z 13005KT 080V160 CAVOK 06/00 Q1000

METARs OBSOLETI :
  • 041700Z 11007KT 090V160 CAVOK 05/01 Q0999
  • 041630Z 11005KT 070V160 CAVOK 04/00 Q0999
  • 041600Z 15008KT 120V180 CAVOK 05/00 Q0999
  • 041530Z 18011KT 160V220 9999 FEW025 06/01 Q0999 R99/CLRD//
  • 041500Z 17010KT 140V200 9999 FEW025 05/01 Q0998 R29/CLRD//

TAF TAF EPWR
Valido dal 04 a 18 ore il 05 a 18 ore UTC


041730Z 0418/0518 11007KT CAVOK
BECMG 0421/0424 17010KT
TEMPO 0500/0508 17018G32KT
TEMPO 0508/0516 17016G27KT



MetMap, La meteo Aeronautica in un colpo d'occhio ! - Copyright ORBIFLY Dicembre 2007 - Disclaimer

ORBIFLY MET'MAP TEAM :

Programmazione e sviluppo : Alexandra Zaïnal
Concezione : Baudouin d'Aumeries
Aiuto per la programmazione : Marc-Olivier Méhu
Supporto tecnico e logistico : Manuel Goepfert
Aiuto per la traduzione : Arnaldo La Scala

Contatto : metmap@orbifly.com




FONTI E CREDITI :

   NOAA